createdAt,value
2023-05-23T00:00:33.563Z,52.29
2023-05-23T00:01:36.441Z,52.42
2023-05-23T00:02:38.852Z,52.48
2023-05-23T00:03:41.406Z,52.47
2023-05-23T00:04:43.647Z,52.44
2023-05-23T00:05:45.796Z,52.34
2023-05-23T00:06:48.116Z,52.35
2023-05-23T00:07:50.405Z,52.54
2023-05-23T00:08:52.669Z,52.48
2023-05-23T00:09:54.966Z,52.40
2023-05-23T00:10:57.359Z,52.55
2023-05-23T00:11:59.829Z,52.42
2023-05-23T00:13:02.091Z,52.37
2023-05-23T00:14:04.336Z,52.58
2023-05-23T00:15:07.536Z,52.62
2023-05-23T00:16:10.615Z,52.48
2023-05-23T00:17:13.070Z,52.38
2023-05-23T00:18:15.348Z,52.50
2023-05-23T00:19:17.747Z,52.64
2023-05-23T00:20:19.981Z,52.58
2023-05-23T00:21:22.452Z,52.57
2023-05-23T00:22:25.034Z,52.64
2023-05-23T00:23:27.445Z,52.69
2023-05-23T00:24:29.672Z,52.53
2023-05-23T00:25:31.975Z,52.80
2023-05-23T00:26:34.551Z,52.84
2023-05-23T00:27:37.170Z,52.77
2023-05-23T00:28:40.032Z,52.76
2023-05-23T00:29:42.441Z,52.76
2023-05-23T00:30:44.995Z,52.91
2023-05-23T00:31:47.552Z,52.83
2023-05-23T00:32:49.908Z,53.02
2023-05-23T00:33:51.945Z,52.85
2023-05-23T00:34:54.141Z,52.91
2023-05-23T00:35:56.303Z,52.92
2023-05-23T00:36:58.603Z,53.03
2023-05-23T00:38:00.945Z,52.86
2023-05-23T00:39:03.488Z,52.88
2023-05-23T00:40:07.902Z,53.00
2023-05-23T00:41:10.239Z,53.06
2023-05-23T00:42:12.428Z,53.09
2023-05-23T00:43:14.692Z,53.18
2023-05-23T00:44:16.903Z,53.32
2023-05-23T00:45:19.373Z,53.03
2023-05-23T00:46:22.329Z,53.12
2023-05-23T00:47:24.693Z,53.33
2023-05-23T00:48:27.970Z,53.39
2023-05-23T00:49:30.839Z,53.38
2023-05-23T00:50:33.470Z,53.34
2023-05-23T00:51:35.868Z,53.66
2023-05-23T00:52:38.851Z,53.45
2023-05-23T00:53:42.197Z,53.61
2023-05-23T00:54:44.735Z,53.61
2023-05-23T00:55:47.518Z,53.64
2023-05-23T00:56:50.115Z,53.64
2023-05-23T00:57:54.299Z,53.57
2023-05-23T00:58:57.447Z,53.58
2023-05-23T01:00:01.229Z,53.60
2023-05-23T01:01:03.845Z,53.77
2023-05-23T01:02:06.878Z,53.95
2023-05-23T01:03:09.323Z,53.69
2023-05-23T01:04:12.433Z,54.21
2023-05-23T01:05:16.011Z,54.20
2023-05-23T01:06:20.061Z,54.00
2023-05-23T01:07:22.358Z,54.13
2023-05-23T01:08:24.656Z,54.04
2023-05-23T01:09:29.171Z,54.01
2023-05-23T01:10:31.866Z,54.13
2023-05-23T01:12:53.232Z,54.29
2023-05-23T01:13:59.139Z,54.32
2023-05-23T01:15:08.017Z,54.71
2023-05-23T01:16:14.130Z,54.48
2023-05-23T01:18:41.036Z,54.87
2023-05-23T01:19:53.277Z,54.57
2023-05-23T01:21:05.334Z,54.69
2023-05-23T01:23:28.788Z,54.66
2023-05-23T01:24:40.595Z,55.01
2023-05-23T01:25:49.533Z,55.33
2023-05-23T01:27:01.408Z,55.12
2023-05-23T01:28:07.498Z,55.22
2023-05-23T01:29:13.516Z,54.85
2023-05-23T01:30:18.913Z,55.18
2023-05-23T01:31:25.312Z,54.88
2023-05-23T01:32:28.943Z,54.81
2023-05-23T01:33:32.114Z,55.25
2023-05-23T01:34:36.727Z,55.41
2023-05-23T01:35:40.178Z,55.46
2023-05-23T01:36:43.511Z,55.16
2023-05-23T01:37:45.779Z,55.08
2023-05-23T01:38:47.991Z,55.50
2023-05-23T01:39:50.389Z,55.43
2023-05-23T01:40:53.756Z,55.29
2023-05-23T01:41:56.029Z,55.62
2023-05-23T01:42:58.870Z,55.63
2023-05-23T01:44:03.976Z,56.03
2023-05-23T01:45:07.360Z,56.02
2023-05-23T01:46:11.088Z,55.97
2023-05-23T01:47:15.070Z,56.20
2023-05-23T01:48:18.493Z,56.09
2023-05-23T01:49:23.586Z,56.00
2023-05-23T01:50:28.682Z,56.17
2023-05-23T01:51:31.393Z,56.14
2023-05-23T01:52:34.841Z,56.31
2023-05-23T01:53:37.252Z,56.11
2023-05-23T01:54:40.631Z,56.28
2023-05-23T01:55:43.325Z,56.41
2023-05-23T01:56:48.179Z,56.28
2023-05-23T01:57:51.920Z,56.23
2023-05-23T01:58:54.687Z,56.52
2023-05-23T01:59:57.529Z,56.71
2023-05-23T02:01:00.942Z,56.82
2023-05-23T02:02:03.839Z,56.84
2023-05-23T02:03:07.630Z,56.40
2023-05-23T02:04:10.279Z,56.41
2023-05-23T02:05:12.544Z,56.72
2023-05-23T02:06:15.197Z,56.30
2023-05-23T02:07:17.360Z,56.42
2023-05-23T02:08:21.480Z,56.95
2023-05-23T02:09:23.697Z,56.97
2023-05-23T02:10:26.129Z,57.11
2023-05-23T02:11:28.499Z,57.00
2023-05-23T02:12:31.280Z,57.08
2023-05-23T02:13:34.424Z,57.14
2023-05-23T02:14:37.058Z,57.11
2023-05-23T02:15:40.000Z,57.24
2023-05-23T02:16:42.610Z,57.44
2023-05-23T02:17:45.042Z,57.48
2023-05-23T02:18:47.353Z,57.68
2023-05-23T02:19:50.023Z,57.58
2023-05-23T02:20:52.355Z,57.27
2023-05-23T02:21:54.714Z,57.51
2023-05-23T02:22:57.260Z,57.51
2023-05-23T02:23:59.437Z,57.54
2023-05-23T02:25:01.955Z,57.70
2023-05-23T02:26:04.298Z,57.46
2023-05-23T02:27:06.731Z,57.57
2023-05-23T02:28:09.110Z,57.84
2023-05-23T02:29:11.988Z,57.76
2023-05-23T02:30:14.740Z,57.90
2023-05-23T02:31:17.341Z,57.79
2023-05-23T02:32:19.738Z,57.78
2023-05-23T02:33:22.050Z,57.71
2023-05-23T02:34:25.532Z,57.92
2023-05-23T02:35:27.910Z,57.80
2023-05-23T02:36:30.461Z,57.93
2023-05-23T02:37:32.785Z,57.64
2023-05-23T02:38:35.212Z,58.05
2023-05-23T02:39:37.508Z,58.00
2023-05-23T02:40:40.168Z,58.04
2023-05-23T02:41:42.367Z,57.89
2023-05-23T02:42:45.105Z,58.10
2023-05-23T02:43:47.419Z,58.03
2023-05-23T02:44:50.836Z,57.94
2023-05-23T02:45:53.236Z,57.91
2023-05-23T02:46:55.356Z,58.00
2023-05-23T02:47:57.789Z,57.84
2023-05-23T02:49:00.791Z,58.30
2023-05-23T02:50:02.998Z,58.55
2023-05-23T02:51:05.737Z,58.21
2023-05-23T02:52:08.093Z,58.04
2023-05-23T02:53:10.717Z,58.19
2023-05-23T02:54:12.925Z,58.28
2023-05-23T02:55:15.243Z,58.50
2023-05-23T02:56:20.245Z,58.52
2023-05-23T02:57:22.609Z,58.64
2023-05-23T02:58:24.816Z,58.73
2023-05-23T02:59:27.207Z,58.46
2023-05-23T03:00:29.677Z,58.58
2023-05-23T03:01:32.234Z,58.71
2023-05-23T03:02:34.609Z,58.70
2023-05-23T03:03:37.105Z,58.62
2023-05-23T03:04:39.746Z,58.62
2023-05-23T03:05:42.547Z,58.37
2023-05-23T03:06:45.378Z,58.37
2023-05-23T03:07:47.777Z,58.52
2023-05-23T03:08:50.302Z,58.49
2023-05-23T03:09:52.887Z,58.09
2023-05-23T03:10:55.536Z,57.90
2023-05-23T03:11:58.522Z,58.03
2023-05-23T03:13:00.869Z,57.58
2023-05-23T03:14:03.455Z,57.70
2023-05-23T03:15:06.394Z,57.79
2023-05-23T03:16:10.621Z,57.67
2023-05-23T03:17:13.630Z,58.15
2023-05-23T03:18:16.135Z,58.06
2023-05-23T03:19:18.487Z,57.95
2023-05-23T03:20:21.533Z,57.81
2023-05-23T03:21:24.860Z,57.81
2023-05-23T03:22:27.309Z,57.99
2023-05-23T03:23:29.757Z,58.02
2023-05-23T03:24:31.999Z,58.15
2023-05-23T03:25:34.326Z,58.30
2023-05-23T03:26:36.731Z,58.01
2023-05-23T03:27:38.844Z,58.20
2023-05-23T03:28:41.944Z,58.27
2023-05-23T03:29:44.180Z,58.79
2023-05-23T03:30:46.977Z,58.84
2023-05-23T03:31:49.485Z,58.64
2023-05-23T03:32:51.722Z,58.72
2023-05-23T03:33:53.892Z,58.85
2023-05-23T03:34:56.404Z,58.54
2023-05-23T03:35:58.701Z,58.34
2023-05-23T03:37:01.246Z,58.22
2023-05-23T03:38:03.766Z,58.14
2023-05-23T03:39:06.234Z,58.52
2023-05-23T03:40:10.230Z,58.38
2023-05-23T03:41:13.565Z,58.52
2023-05-23T03:42:17.060Z,58.48
2023-05-23T03:43:19.925Z,58.45
2023-05-23T03:44:23.677Z,58.21
2023-05-23T03:45:25.952Z,58.36
2023-05-23T03:46:28.905Z,58.43
2023-05-23T03:47:31.328Z,58.68
2023-05-23T03:48:35.795Z,58.87
2023-05-23T03:49:38.252Z,59.10
2023-05-23T03:50:41.105Z,59.19
2023-05-23T03:51:44.249Z,59.25
2023-05-23T03:52:47.330Z,59.63
2023-05-23T03:53:50.087Z,59.41
2023-05-23T03:54:53.444Z,59.34
2023-05-23T03:55:56.615Z,59.53
2023-05-23T03:56:59.097Z,59.49
2023-05-23T03:58:01.580Z,59.46
2023-05-23T03:59:04.564Z,59.37
2023-05-23T04:00:08.531Z,59.46
2023-05-23T04:01:12.911Z,59.70
2023-05-23T04:02:15.503Z,59.72
2023-05-23T04:03:19.869Z,59.48
2023-05-23T04:04:22.628Z,59.35
2023-05-23T04:05:25.028Z,59.30
2023-05-23T04:06:27.524Z,59.19
2023-05-23T04:07:31.133Z,59.32
2023-05-23T04:08:34.180Z,59.75
2023-05-23T04:09:36.650Z,59.42
2023-05-23T04:10:41.706Z,59.32
2023-05-23T04:11:44.277Z,59.63
2023-05-23T04:12:46.510Z,59.62
2023-05-23T04:13:50.600Z,59.65
2023-05-23T04:14:52.828Z,59.69
2023-05-23T04:15:55.261Z,59.76
2023-05-23T04:16:58.329Z,59.77
2023-05-23T04:18:01.002Z,59.66
2023-05-23T04:19:05.555Z,59.84
2023-05-23T04:20:09.346Z,59.39
2023-05-23T04:21:11.698Z,59.28
2023-05-23T04:22:15.792Z,58.91
2023-05-23T04:23:18.873Z,58.92
2023-05-23T04:24:23.112Z,59.29
2023-05-23T04:25:25.332Z,59.73
2023-05-23T04:26:30.001Z,59.84
2023-05-23T04:27:32.442Z,59.91
2023-05-23T04:28:34.920Z,59.79
2023-05-23T04:29:37.059Z,59.91
2023-05-23T04:30:39.824Z,59.85
2023-05-23T04:31:42.795Z,59.98
2023-05-23T04:32:45.837Z,60.50
2023-05-23T04:33:48.870Z,60.26
2023-05-23T04:34:51.559Z,59.65
2023-05-23T04:35:54.536Z,59.87
2023-05-23T04:36:57.419Z,59.88
2023-05-23T04:38:00.662Z,60.29
2023-05-23T04:39:07.373Z,60.33
2023-05-23T04:40:12.619Z,60.43
2023-05-23T04:41:19.750Z,61.04
2023-05-23T04:42:24.054Z,60.87
2023-05-23T04:43:31.620Z,60.50
2023-05-23T04:44:36.054Z,60.49
2023-05-23T04:45:40.304Z,60.47
2023-05-23T04:47:02.687Z,60.66
2023-05-23T04:48:07.302Z,60.60
2023-05-23T04:49:14.045Z,60.58
2023-05-23T04:50:16.923Z,60.53
2023-05-23T04:51:20.581Z,60.57
2023-05-23T04:52:27.669Z,60.46
2023-05-23T04:53:30.350Z,60.72
2023-05-23T04:54:33.518Z,60.95
2023-05-23T04:55:37.912Z,61.00
2023-05-23T04:56:42.674Z,61.17
2023-05-23T04:57:45.827Z,60.68
2023-05-23T04:58:48.596Z,60.95
2023-05-23T04:59:51.341Z,60.38
2023-05-23T05:00:54.754Z,60.41
2023-05-23T05:01:57.007Z,60.30
2023-05-23T05:02:59.703Z,60.35
2023-05-23T05:04:04.342Z,60.41
2023-05-23T05:05:07.192Z,60.44
2023-05-23T05:06:11.143Z,60.50
2023-05-23T05:07:13.442Z,60.36
2023-05-23T05:08:15.934Z,59.69
2023-05-23T05:09:18.498Z,59.83
2023-05-23T05:10:21.945Z,60.04
2023-05-23T05:11:25.690Z,60.12
2023-05-23T05:12:30.755Z,59.62
2023-05-23T05:13:33.464Z,59.17
2023-05-23T05:14:36.415Z,59.29
2023-05-23T05:15:38.689Z,59.16
2023-05-23T05:16:41.709Z,58.64
2023-05-23T05:17:45.099Z,58.46
2023-05-23T05:18:50.394Z,58.43
2023-05-23T05:19:54.370Z,58.73
2023-05-23T05:20:57.759Z,58.50
2023-05-23T05:22:00.699Z,58.58
2023-05-23T05:23:03.068Z,58.55
2023-05-23T05:24:05.798Z,58.41
2023-05-23T05:25:09.424Z,59.10
2023-05-23T05:26:12.218Z,58.90
2023-05-23T05:27:14.613Z,58.35
2023-05-23T05:28:16.865Z,58.23
2023-05-23T05:29:21.376Z,58.33
2023-05-23T05:30:23.774Z,58.20
2023-05-23T05:31:27.940Z,57.88
2023-05-23T05:32:36.755Z,58.07
2023-05-23T05:33:39.068Z,57.98
2023-05-23T05:34:49.093Z,57.68
2023-05-23T05:35:51.153Z,57.41
2023-05-23T05:36:53.621Z,58.05
2023-05-23T05:37:55.908Z,57.95
2023-05-23T05:38:58.987Z,57.50
2023-05-23T05:40:01.745Z,58.04
2023-05-23T05:41:08.156Z,58.58
2023-05-23T05:42:12.585Z,58.63
2023-05-23T05:43:15.661Z,57.63
2023-05-23T05:44:18.377Z,57.40
2023-05-23T05:45:21.315Z,57.16
2023-05-23T05:46:24.686Z,57.00
2023-05-23T05:47:28.414Z,57.28
2023-05-23T05:48:31.041Z,57.08
2023-05-23T05:49:35.145Z,57.24
2023-05-23T05:50:37.813Z,57.36
2023-05-23T05:51:40.693Z,57.77
2023-05-23T05:52:43.001Z,57.91
2023-05-23T05:53:45.588Z,56.70
2023-05-23T05:54:48.323Z,57.40
2023-05-23T05:55:50.674Z,56.75
2023-05-23T05:56:55.078Z,56.35
2023-05-23T05:57:57.541Z,56.05
2023-05-23T05:59:01.110Z,56.36
2023-05-23T06:01:15.251Z,56.83
2023-05-23T06:02:17.745Z,56.55
2023-05-23T06:03:20.413Z,56.01
2023-05-23T06:04:31.002Z,56.04
2023-05-23T06:05:33.777Z,55.36
2023-05-23T06:06:36.188Z,54.79
2023-05-23T06:08:54.503Z,54.93
2023-05-23T06:09:57.036Z,55.86
2023-05-23T06:10:59.578Z,55.65
2023-05-23T06:12:02.336Z,55.50
2023-05-23T06:13:04.725Z,55.42
2023-05-23T06:14:08.504Z,55.27
2023-05-23T06:15:12.939Z,55.28
2023-05-23T06:16:16.150Z,55.79
2023-05-23T06:17:19.830Z,55.84
2023-05-23T06:18:22.483Z,55.97
2023-05-23T06:19:25.780Z,55.24
2023-05-23T06:20:30.388Z,56.01
2023-05-23T06:21:34.254Z,55.75
2023-05-23T06:22:37.044Z,55.63
2023-05-23T06:23:41.021Z,56.05
2023-05-23T06:24:44.946Z,56.34
2023-05-23T06:25:48.426Z,55.35
2023-05-23T06:26:50.778Z,56.04
2023-05-23T06:27:53.161Z,55.32
2023-05-23T06:28:55.331Z,54.74
2023-05-23T06:29:57.554Z,55.29
2023-05-23T06:31:00.008Z,54.80
2023-05-23T06:32:02.558Z,53.84
2023-05-23T06:33:06.586Z,54.54
2023-05-23T06:34:08.814Z,54.01
2023-05-23T06:35:11.126Z,54.44
2023-05-23T06:36:13.548Z,54.74
2023-05-23T06:37:15.600Z,53.90
2023-05-23T06:38:17.947Z,54.03
2023-05-23T06:39:20.429Z,53.83
2023-05-23T06:40:22.848Z,53.51
2023-05-23T06:41:25.449Z,54.16
2023-05-23T06:42:28.738Z,54.09
2023-05-23T06:43:32.766Z,53.40
2023-05-23T06:44:55.243Z,54.09
2023-05-23T06:45:57.729Z,53.54
2023-05-23T06:47:01.162Z,52.94
2023-05-23T06:48:04.270Z,53.31
2023-05-23T06:50:11.946Z,53.46
2023-05-23T06:51:14.248Z,52.94
2023-05-23T06:52:16.823Z,52.30
2023-05-23T06:53:19.483Z,51.80
2023-05-23T06:54:22.677Z,52.24
2023-05-23T06:55:25.357Z,52.90
2023-05-23T06:56:27.742Z,53.07
2023-05-23T06:57:31.963Z,53.10
2023-05-23T06:58:34.350Z,53.27
2023-05-23T06:59:36.638Z,52.72
2023-05-23T07:00:40.342Z,52.43
2023-05-23T07:01:44.860Z,51.68
2023-05-23T07:02:48.228Z,52.54
2023-05-23T07:03:51.518Z,51.85
2023-05-23T07:04:53.924Z,52.37
2023-05-23T07:05:58.551Z,52.32
2023-05-23T07:07:02.564Z,51.36
2023-05-23T07:08:05.265Z,51.37
2023-05-23T07:09:07.581Z,51.51
2023-05-23T07:10:11.702Z,51.93
2023-05-23T07:11:13.833Z,51.66
2023-05-23T07:12:18.187Z,51.14
2023-05-23T07:13:22.317Z,51.23
2023-05-23T07:14:24.411Z,51.48
2023-05-23T07:15:28.809Z,51.54
2023-05-23T07:16:33.539Z,51.11
2023-05-23T07:17:38.442Z,51.75
2023-05-23T07:18:41.543Z,50.95
2023-05-23T07:19:45.667Z,50.87
2023-05-23T07:20:48.406Z,51.08
2023-05-23T07:21:52.497Z,50.52
2023-05-23T07:22:55.148Z,51.56
2023-05-23T07:23:57.498Z,50.53
2023-05-23T07:25:00.409Z,52.08
2023-05-23T07:26:04.725Z,51.22
2023-05-23T07:27:08.770Z,51.12
2023-05-23T07:28:12.440Z,51.64
2023-05-23T07:29:14.866Z,50.86
2023-05-23T07:30:18.768Z,49.28
2023-05-23T07:31:21.406Z,48.53
2023-05-23T07:32:24.103Z,48.02
2023-05-23T07:33:26.838Z,47.65
2023-05-23T07:34:31.424Z,48.05
2023-05-23T07:35:35.740Z,47.83
2023-05-23T07:36:39.256Z,48.08
2023-05-23T07:37:42.328Z,47.68
2023-05-23T07:38:45.123Z,48.45
2023-05-23T07:39:47.556Z,48.71
2023-05-23T07:41:02.671Z,47.99
2023-05-23T07:41:54.853Z,48.48
2023-05-23T07:42:57.380Z,47.92
2023-05-23T07:43:59.710Z,47.21
2023-05-23T07:45:02.971Z,48.51
2023-05-23T07:46:05.818Z,48.11
2023-05-23T07:47:09.169Z,47.41
2023-05-23T07:48:12.110Z,47.40
2023-05-23T07:49:14.976Z,46.76
2023-05-23T07:50:18.293Z,46.73
2023-05-23T07:51:20.684Z,46.75
2023-05-23T07:52:23.230Z,47.57
2023-05-23T07:53:25.949Z,47.45
2023-05-23T07:54:28.385Z,47.61
2023-05-23T07:55:32.545Z,46.66
2023-05-23T07:56:35.665Z,46.35
2023-05-23T07:57:38.352Z,46.00
2023-05-23T07:58:40.536Z,46.43
2023-05-23T07:59:42.872Z,46.25
2023-05-23T08:00:45.813Z,46.08
2023-05-23T08:01:50.703Z,45.85
2023-05-23T08:02:54.899Z,45.60
2023-05-23T08:04:00.253Z,45.60
2023-05-23T08:05:08.688Z,47.10
2023-05-23T08:06:12.792Z,47.23
2023-05-23T08:07:16.272Z,46.74
2023-05-23T08:08:21.289Z,47.65
2023-05-23T08:09:23.687Z,46.88
2023-05-23T08:10:27.643Z,47.30
2023-05-23T08:11:31.788Z,47.34
2023-05-23T08:12:35.221Z,46.39
2023-05-23T08:13:39.176Z,45.94
2023-05-23T08:16:07.199Z,46.10
2023-05-23T08:17:12.085Z,45.25
2023-05-23T08:18:17.297Z,46.07
2023-05-23T08:19:19.812Z,45.95
2023-05-23T08:20:22.831Z,46.66
2023-05-23T08:21:25.977Z,46.29
2023-05-23T08:22:29.238Z,46.71
2023-05-23T08:23:31.710Z,46.29
2023-05-23T08:24:34.097Z,47.47
2023-05-23T08:25:37.109Z,45.44
2023-05-23T08:26:40.270Z,46.01
2023-05-23T08:27:44.551Z,45.74
2023-05-23T08:28:48.720Z,44.72
2023-05-23T08:29:51.278Z,44.44
2023-05-23T08:30:53.744Z,44.20
2023-05-23T08:31:56.286Z,43.71
2023-05-23T08:32:59.600Z,44.17
2023-05-23T08:34:01.889Z,44.26
2023-05-23T08:35:06.855Z,44.69
2023-05-23T08:36:09.693Z,44.33
2023-05-23T08:37:12.903Z,45.23
2023-05-23T08:38:15.528Z,45.09
2023-05-23T08:39:19.542Z,44.85
2023-05-23T08:40:29.413Z,45.64
2023-05-23T08:41:35.409Z,45.13
2023-05-23T08:42:40.169Z,44.46
2023-05-23T08:43:42.765Z,44.60
2023-05-23T08:44:47.492Z,44.89
2023-05-23T08:45:52.098Z,44.59
2023-05-23T08:46:55.167Z,45.40
2023-05-23T08:48:01.318Z,45.51
2023-05-23T08:49:07.156Z,44.53
2023-05-23T08:50:15.485Z,45.96
2023-05-23T08:51:21.718Z,45.64
2023-05-23T08:52:27.127Z,45.18
2023-05-23T08:53:32.934Z,45.35
2023-05-23T08:54:37.146Z,44.90
2023-05-23T08:55:41.476Z,44.40
2023-05-23T08:56:45.688Z,44.72
2023-05-23T08:57:49.752Z,44.72
2023-05-23T08:59:12.840Z,44.72
2023-05-23T09:00:16.858Z,44.25
2023-05-23T09:01:20.143Z,43.17
2023-05-23T09:02:24.541Z,43.39
2023-05-23T09:03:28.929Z,43.67
2023-05-23T09:04:42.250Z,43.08
2023-05-23T09:05:49.835Z,43.19
2023-05-23T09:06:56.312Z,43.23
2023-05-23T09:07:58.736Z,43.28
2023-05-23T09:09:01.296Z,43.59
2023-05-23T09:10:10.078Z,43.73
2023-05-23T09:11:13.110Z,43.55
2023-05-23T09:12:15.665Z,43.21
2023-05-23T09:13:18.799Z,43.40
2023-05-23T09:14:22.194Z,43.29
2023-05-23T09:15:26.140Z,43.86
2023-05-23T09:16:33.988Z,42.80
2023-05-23T09:17:38.355Z,42.22
2023-05-23T09:18:42.412Z,42.56
2023-05-23T09:19:45.301Z,42.41
2023-05-23T09:21:09.068Z,42.80
2023-05-23T09:22:12.659Z,42.07
2023-05-23T09:23:18.338Z,42.58
2023-05-23T09:24:21.272Z,42.80
2023-05-23T09:25:24.335Z,42.44
2023-05-23T09:26:27.593Z,42.63
2023-05-23T09:27:30.713Z,42.81
2023-05-23T09:28:34.786Z,42.61
2023-05-23T09:29:38.195Z,42.61
2023-05-23T09:30:40.790Z,42.77
2023-05-23T09:31:44.129Z,43.04
2023-05-23T09:32:58.601Z,43.28
2023-05-23T09:34:01.876Z,43.05
2023-05-23T09:35:06.704Z,43.43
2023-05-23T09:36:10.945Z,42.97
2023-05-23T09:37:13.368Z,43.38
2023-05-23T09:38:16.211Z,43.77
2023-05-23T09:39:18.968Z,43.45
2023-05-23T09:40:22.589Z,44.20
2023-05-23T09:41:30.068Z,44.52
2023-05-23T09:42:34.020Z,44.76
2023-05-23T09:43:37.854Z,44.36
2023-05-23T09:44:43.803Z,44.02
2023-05-23T09:45:47.242Z,44.47
2023-05-23T09:46:50.954Z,44.30
2023-05-23T09:47:53.283Z,44.14
2023-05-23T09:48:55.858Z,44.21
2023-05-23T09:49:59.439Z,43.71
2023-05-23T09:51:08.485Z,43.64
2023-05-23T09:52:10.906Z,44.65
2023-05-23T09:53:13.218Z,43.80
2023-05-23T09:54:15.430Z,44.71
2023-05-23T09:55:17.924Z,45.14
2023-05-23T09:56:21.518Z,46.06
2023-05-23T09:57:23.863Z,44.85
2023-05-23T09:58:27.689Z,45.10
2023-05-23T09:59:31.736Z,46.51
2023-05-23T10:00:34.241Z,44.84
2023-05-23T10:01:36.598Z,45.33
2023-05-23T10:03:07.111Z,44.15
2023-05-23T10:04:09.717Z,43.83
2023-05-23T10:05:15.726Z,43.38
2023-05-23T10:06:31.415Z,44.13
2023-05-23T10:07:35.924Z,43.41
2023-05-23T10:08:44.667Z,43.99
2023-05-23T10:09:59.794Z,44.75
2023-05-23T10:11:18.034Z,45.22
2023-05-23T10:12:42.049Z,44.65
2023-05-23T10:13:46.383Z,44.99
2023-05-23T10:14:52.664Z,45.33
2023-05-23T10:16:01.136Z,45.94
2023-05-23T10:18:18.736Z,44.86
2023-05-23T10:19:26.736Z,44.19
2023-05-23T10:23:02.088Z,43.98
2023-05-23T10:24:04.892Z,44.21
2023-05-23T10:25:08.664Z,43.50
2023-05-23T10:26:11.308Z,44.34
2023-05-23T10:27:14.760Z,44.35
2023-05-23T10:28:17.407Z,44.54
2023-05-23T10:29:21.897Z,43.60
2023-05-23T10:30:26.001Z,44.56
2023-05-23T10:31:28.999Z,44.28
2023-05-23T10:32:33.541Z,43.21
2023-05-23T10:33:39.563Z,42.89
2023-05-23T10:36:12.131Z,43.29
2023-05-23T10:37:30.284Z,43.60
2023-05-23T10:38:55.398Z,43.34
2023-05-23T10:40:13.559Z,44.02
2023-05-23T10:41:37.783Z,43.08
2023-05-23T10:43:05.062Z,43.66
2023-05-23T10:45:23.935Z,42.35
2023-05-23T10:46:46.731Z,42.45
2023-05-23T10:47:50.706Z,41.80
2023-05-23T10:48:56.054Z,42.60
2023-05-23T10:49:58.360Z,41.89
2023-05-23T10:51:06.006Z,42.13
2023-05-23T10:52:10.742Z,41.01
2023-05-23T10:53:15.766Z,41.09
2023-05-23T10:54:19.352Z,41.78
2023-05-23T10:55:21.987Z,41.56
2023-05-23T10:56:24.895Z,41.46
2023-05-23T10:57:27.276Z,41.01
2023-05-23T10:58:30.567Z,41.14
2023-05-23T10:59:33.246Z,41.12
2023-05-23T11:00:36.264Z,41.27
2023-05-23T11:01:41.805Z,41.72
2023-05-23T11:02:56.161Z,40.74
2023-05-23T11:04:02.259Z,40.56
2023-05-23T11:05:23.160Z,41.75
2023-05-23T11:06:35.330Z,40.83
2023-05-23T11:07:39.461Z,40.34
2023-05-23T11:08:47.833Z,41.04
2023-05-23T11:10:10.504Z,41.72
2023-05-23T11:11:12.842Z,40.77
2023-05-23T11:12:15.208Z,40.84
2023-05-23T11:13:18.753Z,40.22
2023-05-23T11:14:33.887Z,40.96
2023-05-23T11:15:42.919Z,39.74
2023-05-23T11:16:45.490Z,40.56
2023-05-23T11:17:56.435Z,39.89
2023-05-23T11:20:30.262Z,40.13
2023-05-23T11:21:33.657Z,39.31
2023-05-23T11:22:36.293Z,40.08
2023-05-23T11:23:42.748Z,39.96
2023-05-23T11:24:55.767Z,39.74
2023-05-23T11:25:58.072Z,40.07
2023-05-23T11:27:00.845Z,38.43
2023-05-23T11:28:05.993Z,38.88
2023-05-23T11:29:09.146Z,39.17
2023-05-23T11:30:18.429Z,38.70
2023-05-23T11:31:21.116Z,38.91
2023-05-23T11:32:24.883Z,38.38
2023-05-23T11:33:29.647Z,39.03
2023-05-23T11:34:32.071Z,38.92
2023-05-23T11:35:35.248Z,39.16
2023-05-23T11:36:38.014Z,39.24
2023-05-23T11:37:41.094Z,38.50
2023-05-23T11:38:43.486Z,39.07
2023-05-23T11:39:46.038Z,37.96
2023-05-23T11:40:48.379Z,38.63
2023-05-23T11:42:02.296Z,38.03
2023-05-23T11:44:18.761Z,36.89
2023-05-23T11:45:22.855Z,36.69
2023-05-23T11:46:25.435Z,37.32
2023-05-23T11:47:28.052Z,39.45
2023-05-23T11:48:30.797Z,38.33
2023-05-23T11:49:36.745Z,38.96
2023-05-23T11:50:50.584Z,39.15
2023-05-23T11:51:52.873Z,40.91
2023-05-23T11:52:55.276Z,40.31
2023-05-23T11:54:01.965Z,39.80
2023-05-23T11:55:06.950Z,39.27
2023-05-23T11:56:10.278Z,39.49
2023-05-23T11:57:13.594Z,39.94
2023-05-23T11:58:16.056Z,39.01
2023-05-23T11:59:18.285Z,38.10
2023-05-23T12:00:21.668Z,38.43
2023-05-23T12:01:27.568Z,38.85
2023-05-23T12:02:30.143Z,38.79
2023-05-23T12:03:34.532Z,38.10
2023-05-23T12:04:37.377Z,38.10
2023-05-23T12:05:43.036Z,38.44
2023-05-23T12:06:47.723Z,37.88
2023-05-23T12:07:49.939Z,38.65
2023-05-23T12:08:52.543Z,39.07
2023-05-23T12:09:57.791Z,38.83
2023-05-23T12:11:00.849Z,39.60
2023-05-23T12:12:03.657Z,39.03
2023-05-23T12:13:06.988Z,38.39
2023-05-23T12:14:15.344Z,38.98
2023-05-23T12:15:19.457Z,39.35
2023-05-23T12:16:22.773Z,39.49
2023-05-23T12:17:25.127Z,38.82
2023-05-23T12:18:29.104Z,37.68
2023-05-23T12:19:31.394Z,38.18
2023-05-23T12:20:33.884Z,38.21
2023-05-23T12:21:47.139Z,38.61
2023-05-23T12:22:49.785Z,38.88
2023-05-23T12:23:52.348Z,37.69
2023-05-23T12:24:55.825Z,39.53
2023-05-23T12:25:58.291Z,39.91
2023-05-23T12:27:02.526Z,38.73
2023-05-23T12:28:05.093Z,39.30
2023-05-23T12:29:07.800Z,39.51
2023-05-23T12:31:41.021Z,37.79
2023-05-23T12:32:45.870Z,38.31
2023-05-23T12:33:50.422Z,37.81
2023-05-23T12:34:53.311Z,37.67
2023-05-23T12:35:55.824Z,37.72
2023-05-23T12:37:14.981Z,37.52
2023-05-23T12:38:07.812Z,37.56
2023-05-23T12:39:10.047Z,37.16
2023-05-23T12:40:15.992Z,36.83
2023-05-23T12:41:20.215Z,37.05
2023-05-23T12:42:22.781Z,36.38
2023-05-23T12:43:25.017Z,37.62
2023-05-23T12:44:30.432Z,37.45
2023-05-23T12:46:43.885Z,37.70
2023-05-23T12:47:46.669Z,37.15
2023-05-23T12:48:49.668Z,38.37
2023-05-23T12:49:52.423Z,38.19
2023-05-23T12:50:54.815Z,37.36
2023-05-23T12:51:57.019Z,37.26
2023-05-23T12:52:59.288Z,37.51
2023-05-23T12:54:02.226Z,37.40
2023-05-23T12:55:05.276Z,36.92
2023-05-23T12:56:09.629Z,37.96
2023-05-23T12:57:11.962Z,37.50
2023-05-23T12:58:14.256Z,37.61
2023-05-23T12:59:16.484Z,38.68
2023-05-23T13:00:20.055Z,37.07
2023-05-23T13:01:22.428Z,37.21
2023-05-23T13:02:24.924Z,37.31
2023-05-23T13:03:27.849Z,38.20
2023-05-23T13:04:32.273Z,40.12
2023-05-23T13:05:34.528Z,42.15
2023-05-23T13:06:36.874Z,43.36
2023-05-23T13:07:39.162Z,44.31
2023-05-23T13:08:41.941Z,43.59
2023-05-23T13:09:44.036Z,46.15
2023-05-23T13:10:46.486Z,46.62
2023-05-23T13:11:49.293Z,46.47
2023-05-23T13:12:51.468Z,46.28
2023-05-23T13:13:53.867Z,45.16
2023-05-23T13:14:56.166Z,45.05
2023-05-23T13:15:58.324Z,46.97
2023-05-23T13:17:01.256Z,47.54
2023-05-23T13:18:03.835Z,48.32
2023-05-23T13:19:06.123Z,50.68
2023-05-23T13:20:11.122Z,50.77
2023-05-23T13:21:13.610Z,51.30
2023-05-23T13:22:16.392Z,51.83
2023-05-23T13:23:18.668Z,50.11
2023-05-23T13:24:21.057Z,50.20
2023-05-23T13:25:23.948Z,51.97
2023-05-23T13:26:26.573Z,52.48
2023-05-23T13:27:28.824Z,51.81
2023-05-23T13:28:32.811Z,51.68
2023-05-23T13:29:35.141Z,50.29
2023-05-23T13:30:38.594Z,51.03
2023-05-23T13:31:41.490Z,51.13
2023-05-23T13:32:44.574Z,51.81
2023-05-23T13:33:46.939Z,52.37
2023-05-23T13:34:49.237Z,51.93
2023-05-23T13:35:51.413Z,52.12
2023-05-23T13:36:54.928Z,51.01
2023-05-23T13:37:57.307Z,50.17
2023-05-23T13:39:00.357Z,51.22
2023-05-23T13:40:03.456Z,51.62
2023-05-23T13:41:05.758Z,53.19
2023-05-23T13:42:08.181Z,51.45
2023-05-23T13:43:10.917Z,51.50
2023-05-23T13:44:14.070Z,52.83
2023-05-23T13:45:16.625Z,49.60
2023-05-23T13:46:19.429Z,49.27
2023-05-23T13:47:21.715Z,48.98
2023-05-23T13:48:23.872Z,50.94
2023-05-23T13:49:25.928Z,48.87
2023-05-23T13:50:28.742Z,49.53
2023-05-23T13:51:30.905Z,51.37
2023-05-23T13:52:33.804Z,49.98
2023-05-23T13:53:36.725Z,49.66
2023-05-23T13:54:39.536Z,51.57
2023-05-23T13:55:42.463Z,50.49
2023-05-23T13:56:45.156Z,50.27
2023-05-23T13:57:48.020Z,51.67
2023-05-23T13:58:50.872Z,50.95
2023-05-23T13:59:52.960Z,49.48
2023-05-23T14:00:55.375Z,49.28
2023-05-23T14:01:57.915Z,46.45
2023-05-23T14:03:00.119Z,45.72
2023-05-23T14:04:03.536Z,43.09